Alba, Missouri
Current Conditions -  °F | °C
As of 7:53 AM on Sunday 25 Jan 2015 (Local Time) from KJLN Reporting Station
Overcast Overcast  
Wind Chill:   Ceiling: 4700
Heat Index:   Visibility: 10mi
Dew Point:   Wind: 18mph
Humidity: 61%   Direction: 290°WNW
Pressure: 29.74"   Gusts: 25mph
Location:  37.24°N, 94.42°W
Report Text: KJLN 251353Z 29016G22KT 10SM FEW038 BKN047 OVC080 08/01 A2974 RMK AO2 SLP070 T00830011
Loading
Personal Weather Stations






























Interactive Weather Map New forecast layout! Learn more

10-Day Weather Forecast

Advertisements
Track Severe Weather on mobile